Time;durP1;ratioP1;P1;durP2;ratioP2;P2;SDS_P1;SDS_P2;PMS_P1;PMS_P2;Temp;Humidity;BMP_temperature;BMP_pressure;BME280_temperature;BME280_humidity;BME280_pressure;Samples;Min_cycle;Max_cycle;Signal;HPM_P1;HPM_P2
2023/05/25 00:01:18;;;;;;;;;;;;;;;7.59;94.12;102453.44;5068060;28;19933;-73
2023/05/25 00:03:44;;;;;;;;;;;;;;;7.51;94.29;102441.13;5075791;28;20258;-74
2023/05/25 00:06:10;;;;;;;;;;;;;;;7.54;94.78;102446.06;5069298;28;19953;-71
2023/05/25 00:08:39;;;;;;;;;;;;;;;7.49;94.65;102448.53;5036619;28;19940;-71
2023/05/25 00:11:04;;;;;;;;;;;;;;;7.48;94.85;102443.41;5048373;28;19939;-73
2023/05/25 00:13:30;;;;;;;;;;;;;;;7.42;94.72;102452.22;5084988;28;19947;-72
2023/05/25 00:15:56;;;;;;;;;;;;;;;7.31;95.21;102449.16;5063072;28;19952;-71
2023/05/25 00:18:23;;;;;;;;;;;;;;;7.32;95.01;102447.34;5037252;28;20088;-73
2023/05/25 00:20:52;;;;;;;;;;;;;;;7.23;95.47;102451.22;5028421;28;19951;-74
2023/05/25 00:23:18;;;;;;;;;;;;;;;7.20;95.40;102457.78;5051367;28;19969;-76
2023/05/25 00:25:44;;;;;;;;;;;;;;;7.13;95.75;102456.97;5052452;28;20706;-70
2023/05/25 00:28:10;;;;;;;;;;;;;;;7.13;95.91;102459.63;5037821;28;19936;-70
2023/05/25 00:30:39;;;;;;;;;;;;;;;7.14;96.11;102463.94;5066091;28;19939;-71
2023/05/25 00:33:05;;;;;;;;;;;;;;;7.06;96.25;102466.78;5079520;28;19938;-72
2023/05/25 00:35:30;;;;;;;;;;;;;;;7.11;95.78;102464.31;5062072;28;19938;-73
2023/05/25 00:37:56;;;;;;;;;;;;;;;7.15;96.06;102462.91;5080979;28;19993;-70
2023/05/25 00:40:21;;;;;;;;;;;;;;;7.10;96.24;102460.00;5059547;28;19934;-71
2023/05/25 00:42:47;;;;;;;;;;;;;;;7.16;95.79;102461.88;5070642;28;20208;-70
2023/05/25 00:45:12;;;;;;;;;;;;;;;7.10;95.88;102452.03;5052855;28;19970;-71
2023/05/25 00:47:38;;;;;;;;;;;;;;;7.13;95.78;102456.16;5083275;28;19942;-71
2023/05/25 00:50:16;;;;;;;;;;;;;;;7.07;95.79;102457.78;5063095;28;20437;-74
2023/05/25 00:52:42;;;;;;;;;;;;;;;7.04;96.07;102453.66;5048217;28;19937;-74
2023/05/25 00:55:10;;;;;;;;;;;;;;;6.97;95.90;102454.69;5065593;28;19936;-72
2023/05/25 00:57:36;;;;;;;;;;;;;;;6.96;96.08;102455.72;5034515;28;19963;-73
2023/05/25 01:00:07;;;;;;;;;;;;;;;6.94;96.23;102460.44;5052411;28;19936;-71
2023/05/25 01:02:33;;;;;;;;;;;;;;;6.94;96.40;102463.09;5066432;28;19964;-69
2023/05/25 01:05:01;;;;;;;;;;;;;;;6.94;96.32;102458.59;5051362;28;20018;-72
2023/05/25 01:07:29;;;;;;;;;;;;;;;6.97;95.85;102452.00;5068717;28;19972;-72
2023/05/25 01:10:05;;;;;;;;;;;;;;;6.99;96.25;102444.66;5050587;28;19936;-71
2023/05/25 01:12:36;;;;;;;;;;;;;;;6.99;96.45;102450.00;5081053;28;20036;-70
2023/05/25 01:15:02;;;;;;;;;;;;;;;6.95;96.13;102444.22;5051802;28;20031;-69
2023/05/25 01:17:28;;;;;;;;;;;;;;;6.93;96.42;102450.81;5053536;28;20058;-71
2023/05/25 01:19:53;;;;;;;;;;;;;;;6.89;96.54;102444.22;5065172;28;20561;-70
2023/05/25 01:22:26;;;;;;;;;;;;;;;6.90;96.49;102451.19;5053589;28;19940;-71
2023/05/25 01:24:54;;;;;;;;;;;;;;;6.91;96.89;102456.34;5061123;28;19939;-73
2023/05/25 01:27:29;;;;;;;;;;;;;;;6.87;96.99;102452.44;5062624;28;19948;-74
2023/05/25 01:29:56;;;;;;;;;;;;;;;6.90;96.69;102462.66;5049022;28;20085;-73
2023/05/25 01:32:22;;;;;;;;;;;;;;;6.86;96.85;102468.63;5066222;28;19941;-73
2023/05/25 01:34:49;;;;;;;;;;;;;;;6.86;96.61;102457.97;5048591;28;19937;-73
2023/05/25 01:37:16;;;;;;;;;;;;;;;6.78;96.85;102469.63;5059974;28;19951;-73
2023/05/25 01:39:42;;;;;;;;;;;;;;;6.72;96.87;102457.94;5049619;28;20285;-72
2023/05/25 01:42:07;;;;;;;;;;;;;;;6.70;97.10;102459.97;5054839;28;20443;-72
2023/05/25 01:44:33;;;;;;;;;;;;;;;6.71;97.16;102458.16;5048012;28;19974;-73
2023/05/25 01:47:05;;;;;;;;;;;;;;;6.69;96.96;102453.00;5062086;28;19984;-73
2023/05/25 01:49:35;;;;;;;;;;;;;;;6.62;97.07;102460.16;5046630;28;20000;-71
2023/05/25 01:52:07;;;;;;;;;;;;;;;6.61;97.25;102450.53;5047896;28;19973;-71
2023/05/25 01:54:38;;;;;;;;;;;;;;;6.62;97.11;102444.19;5060057;28;19934;-73
2023/05/25 01:57:06;;;;;;;;;;;;;;;6.63;96.85;102455.66;5057365;28;19951;-72
2023/05/25 01:59:34;;;;;;;;;;;;;;;6.62;97.40;102462.81;5061173;28;19952;-72
2023/05/25 02:02:02;;;;;;;;;;;;;;;6.63;97.26;102451.16;5069143;28;19948;-71
2023/05/25 02:04:28;;;;;;;;;;;;;;;6.60;97.27;102454.22;5047499;28;19934;-72
2023/05/25 02:06:54;;;;;;;;;;;;;;;6.62;97.53;102448.69;5057168;28;19988;-74
2023/05/25 02:09:20;;;;;;;;;;;;;;;6.59;97.25;102441.94;5063958;28;20022;-72
2023/05/25 02:11:45;;;;;;;;;;;;;;;6.58;97.02;102450.94;5048948;28;19939;-71
2023/05/25 02:14:11;;;;;;;;;;;;;;;6.69;97.83;102450.34;5052444;28;19940;-74
2023/05/25 02:16:37;;;;;;;;;;;;;;;6.72;97.50;102446.47;5034775;28;19945;-71
2023/05/25 02:19:02;;;;;;;;;;;;;;;6.70;97.67;102451.97;5051704;28;19955;-71
2023/05/25 02:21:28;;;;;;;;;;;;;;;6.64;97.75;102455.47;5051811;28;19978;-71
2023/05/25 02:23:56;;;;;;;;;;;;;;;6.63;97.68;102455.66;5081560;28;19937;-70
2023/05/25 02:26:23;;;;;;;;;;;;;;;6.54;97.56;102447.84;5060827;28;19946;-71
2023/05/25 02:28:50;;;;;;;;;;;;;;;6.50;97.62;102456.44;5048096;28;19946;-71
2023/05/25 02:31:17;;;;;;;;;;;;;;;6.51;97.45;102447.44;5048774;28;19939;-72
2023/05/25 02:33:42;;;;;;;;;;;;;;;6.53;97.33;102458.72;5065268;28;20354;-73
2023/05/25 02:36:08;;;;;;;;;;;;;;;6.49;97.49;102460.13;5068830;28;19994;-74
2023/05/25 02:38:33;;;;;;;;;;;;;;;6.47;97.96;102462.16;5083315;28;19954;-71
2023/05/25 02:40:59;;;;;;;;;;;;;;;6.37;97.86;102451.06;5061252;28;20302;-72
2023/05/25 02:43:24;;;;;;;;;;;;;;;6.41;97.87;102457.63;5067767;28;19933;-73
2023/05/25 02:45:50;;;;;;;;;;;;;;;6.48;97.94;102453.16;5064372;28;20031;-74
2023/05/25 02:48:16;;;;;;;;;;;;;;;6.52;97.92;102457.06;5053796;28;19941;-75
2023/05/25 02:50:42;;;;;;;;;;;;;;;6.60;98.17;102454.22;5054689;28;19928;-74
2023/05/25 02:53:11;;;;;;;;;;;;;;;6.70;98.26;102451.97;5050686;28;19943;-73
2023/05/25 02:55:39;;;;;;;;;;;;;;;6.80;98.03;102463.06;5063354;28;20358;-71
2023/05/25 02:58:08;;;;;;;;;;;;;;;6.77;98.24;102457.31;5065745;28;20037;-74
2023/05/25 03:01:00;;;;;;;;;;;;;;;6.79;97.91;102456.09;5079195;28;20410;-70
2023/05/25 03:03:26;;;;;;;;;;;;;;;6.76;98.03;102459.16;5061582;28;20343;-69
2023/05/25 03:05:52;;;;;;;;;;;;;;;6.91;98.63;102468.81;5067097;28;19958;-70
2023/05/25 03:08:17;;;;;;;;;;;;;;;6.79;98.53;102466.75;5046591;28;19932;-71
2023/05/25 03:10:43;;;;;;;;;;;;;;;6.93;98.10;102470.25;5068846;28;19928;-72
2023/05/25 03:13:10;;;;;;;;;;;;;;;6.99;98.45;102477.44;5047569;28;19939;-72
2023/05/25 03:15:35;;;;;;;;;;;;;;;7.17;98.61;102479.50;5049597;28;19929;-72
2023/05/25 03:18:03;;;;;;;;;;;;;;;7.24;98.39;102479.50;5036003;28;20005;-74
2023/05/25 03:20:33;;;;;;;;;;;;;;;7.33;98.58;102483.63;5071604;28;19935;-74
2023/05/25 03:22:59;;;;;;;;;;;;;;;7.44;98.23;102482.97;5050478;28;20439;-73
2023/05/25 03:25:24;;;;;;;;;;;;;;;7.56;98.35;102485.84;5052206;28;20029;-73
2023/05/25 03:27:51;;;;;;;;;;;;;;;7.63;98.56;102490.13;5062779;28;19957;-73
2023/05/25 03:30:17;;;;;;;;;;;;;;;7.69;98.24;102493.00;5084019;28;20414;-73
2023/05/25 03:32:42;;;;;;;;;;;;;;;7.88;98.05;102490.31;5063688;28;19939;-74
2023/05/25 03:35:08;;;;;;;;;;;;;;;8.07;98.03;102485.97;5052312;28;20023;-72
2023/05/25 03:37:34;;;;;;;;;;;;;;;8.29;97.86;102491.00;5033493;28;19995;-73
2023/05/25 03:39:59;;;;;;;;;;;;;;;8.20;97.76;102493.09;5067116;28;19990;-73
2023/05/25 03:42:25;;;;;;;;;;;;;;;8.30;97.59;102489.97;5068498;28;19935;-72
2023/05/25 03:44:50;;;;;;;;;;;;;;;8.31;97.80;102492.44;5051298;28;19968;-73
2023/05/25 03:47:16;;;;;;;;;;;;;;;8.40;97.35;102485.00;5072208;28;19963;-73
2023/05/25 03:49:42;;;;;;;;;;;;;;;8.49;97.43;102483.75;5068868;28;20466;-74
2023/05/25 03:52:07;;;;;;;;;;;;;;;8.53;96.92;102495.63;5079922;28;19929;-73
2023/05/25 03:54:33;;;;;;;;;;;;;;;8.56;96.83;102494.41;5046267;28;19935;-73
2023/05/25 03:56:59;;;;;;;;;;;;;;;8.58;96.35;102493.16;5068338;28;20416;-71
2023/05/25 03:59:25;;;;;;;;;;;;;;;8.59;96.49;102499.31;5051916;28;19956;-70
2023/05/25 04:01:51;;;;;;;;;;;;;;;8.63;95.67;102500.53;5051887;28;19931;-73
2023/05/25 04:04:16;;;;;;;;;;;;;;;8.77;95.80;102506.63;5063248;28;19940;-70
2023/05/25 04:06:47;;;;;;;;;;;;;;;8.69;95.43;102507.69;5066934;28;19957;-73
2023/05/25 04:09:13;;;;;;;;;;;;;;;8.75;95.21;102512.19;5051097;28;19942;-74
2023/05/25 04:11:39;;;;;;;;;;;;;;;8.80;94.89;102512.34;5050920;28;19929;-74
2023/05/25 04:14:04;;;;;;;;;;;;;;;8.82;95.03;102510.28;5084658;28;19933;-73
2023/05/25 04:16:34;;;;;;;;;;;;;;;8.87;94.74;102514.97;5053675;28;19994;-74
2023/05/25 04:19:00;;;;;;;;;;;;;;;8.85;94.53;102511.72;5035059;28;19956;-74
2023/05/25 04:21:26;;;;;;;;;;;;;;;8.86;95.24;102516.84;5059202;28;20306;-72
2023/05/25 04:23:52;;;;;;;;;;;;;;;8.83;93.54;102516.47;5051605;28;19949;-73
2023/05/25 04:26:18;;;;;;;;;;;;;;;8.86;92.99;102513.34;5052662;28;19948;-73
2023/05/25 04:28:46;;;;;;;;;;;;;;;8.82;93.39;102517.50;5054778;28;20292;-73
2023/05/25 04:31:29;;;;;;;;;;;;;;;8.76;93.25;102527.19;5066824;28;19927;-74
2023/05/25 04:34:13;;;;;;;;;;;;;;;8.80;93.20;102528.38;5056588;28;20398;-73
2023/05/25 04:36:44;;;;;;;;;;;;;;;8.80;93.38;102533.72;5054078;28;20010;-72
2023/05/25 04:39:12;;;;;;;;;;;;;;;8.83;92.75;102533.31;5050429;28;19959;-73
2023/05/25 04:41:45;;;;;;;;;;;;;;;8.78;92.73;102541.13;5063903;28;20421;-74
2023/05/25 04:44:12;;;;;;;;;;;;;;;8.68;92.41;102540.78;5068886;28;19936;-72
2023/05/25 04:46:40;;;;;;;;;;;;;;;8.80;92.30;102544.41;5070460;28;20443;-71
2023/05/25 04:49:12;;;;;;;;;;;;;;;8.89;92.03;102543.13;5052701;28;20021;-71
2023/05/25 04:51:37;;;;;;;;;;;;;;;8.98;92.11;102541.84;5064298;28;19986;-70
2023/05/25 04:54:03;;;;;;;;;;;;;;;9.07;91.47;102533.56;5070051;28;20041;-69
2023/05/25 04:56:28;;;;;;;;;;;;;;;9.08;90.90;102549.41;5071177;28;20322;-72
2023/05/25 04:58:54;;;;;;;;;;;;;;;9.11;90.82;102550.81;5068012;28;19965;-73
2023/05/25 05:01:19;;;;;;;;;;;;;;;9.19;91.04;102550.56;5052144;28;19935;-71
2023/05/25 05:03:45;;;;;;;;;;;;;;;9.27;90.11;102544.94;5052898;28;19948;-72
2023/05/25 05:06:12;;;;;;;;;;;;;;;9.38;90.09;102557.63;5067692;28;19968;-71
2023/05/25 05:08:37;;;;;;;;;;;;;;;9.42;90.04;102542.78;5066347;28;19935;-73
2023/05/25 05:11:03;;;;;;;;;;;;;;;9.43;89.45;102549.78;5035962;28;19990;-72
2023/05/25 05:13:29;;;;;;;;;;;;;;;9.50;89.04;102539.84;5068511;28;20032;-72
2023/05/25 05:15:55;;;;;;;;;;;;;;;9.69;88.46;102555.94;5071566;28;20286;-72
2023/05/25 05:18:21;;;;;;;;;;;;;;;9.71;87.13;102556.53;5066852;28;20131;-73
2023/05/25 05:20:47;;;;;;;;;;;;;;;9.77;87.73;102556.47;5051751;28;19934;-72
2023/05/25 05:23:13;;;;;;;;;;;;;;;9.89;87.31;102564.59;5052449;28;20073;-72
2023/05/25 05:25:38;;;;;;;;;;;;;;;9.90;85.94;102555.53;5056954;28;20535;-73
2023/05/25 05:28:04;;;;;;;;;;;;;;;9.96;86.05;102567.22;5053319;28;19932;-72
2023/05/25 05:30:35;;;;;;;;;;;;;;;10.04;86.87;102562.41;5067857;28;20473;-71
2023/05/25 05:33:00;;;;;;;;;;;;;;;10.30;85.17;102560.50;5036416;28;20029;-73
2023/05/25 05:35:30;;;;;;;;;;;;;;;10.35;85.52;102569.50;5065292;28;19942;-74
2023/05/25 05:38:04;;;;;;;;;;;;;;;10.20;85.18;102570.88;5052131;28;19957;-72
2023/05/25 05:40:30;;;;;;;;;;;;;;;10.09;85.38;102569.75;5052486;28;19987;-73
2023/05/25 05:42:56;;;;;;;;;;;;;;;9.95;85.71;102574.41;5054790;28;19943;-75
2023/05/25 05:45:21;;;;;;;;;;;;;;;9.90;85.46;102568.91;5033641;28;20396;-73
2023/05/25 05:47:47;;;;;;;;;;;;;;;9.92;85.39;102569.50;5064640;28;19950;-74
2023/05/25 05:50:12;;;;;;;;;;;;;;;9.98;85.08;102579.34;5065602;28;19940;-70
2023/05/25 05:52:42;;;;;;;;;;;;;;;10.13;83.89;102571.75;5058668;28;19960;-73
2023/05/25 05:55:12;;;;;;;;;;;;;;;10.42;83.10;102576.63;5035099;28;19943;-74
2023/05/25 05:57:39;;;;;;;;;;;;;;;10.76;82.32;102570.66;5052158;28;20059;-73
2023/05/25 06:00:05;;;;;;;;;;;;;;;11.01;80.72;102569.72;5062449;28;20016;-70
2023/05/25 06:02:40;;;;;;;;;;;;;;;11.23;79.20;102570.00;5087716;28;19933;-71
2023/05/25 06:05:07;;;;;;;;;;;;;;;11.09;78.17;102566.69;5068903;28;20328;-74
2023/05/25 06:07:37;;;;;;;;;;;;;;;11.14;78.75;102562.28;5066776;28;19947;-72
2023/05/25 06:10:06;;;;;;;;;;;;;;;11.07;78.19;102574.97;5067841;28;19975;-73
2023/05/25 06:12:31;;;;;;;;;;;;;;;11.25;77.91;102571.44;5052816;28;20303;-73
2023/05/25 06:14:58;;;;;;;;;;;;;;;11.59;78.07;102575.22;5053874;28;20308;-73
2023/05/25 06:17:23;;;;;;;;;;;;;;;11.72;76.86;102577.69;5050005;28;19951;-69
2023/05/25 06:19:52;;;;;;;;;;;;;;;11.63;75.96;102581.75;5034275;28;19947;-72
2023/05/25 06:22:17;;;;;;;;;;;;;;;11.60;75.51;102578.72;5069413;28;19943;-72
2023/05/25 06:24:43;;;;;;;;;;;;;;;11.49;73.88;102580.31;5049961;28;19929;-73
2023/05/25 06:27:08;;;;;;;;;;;;;;;11.39;74.82;102582.78;5037233;28;20035;-73
2023/05/25 06:29:34;;;;;;;;;;;;;;;11.56;74.24;102586.41;5068744;28;20324;-70
2023/05/25 06:32:00;;;;;;;;;;;;;;;11.27;75.00;102592.66;5068190;28;20317;-70
2023/05/25 06:34:26;;;;;;;;;;;;;;;11.35;75.48;102574.34;5066935;28;19932;-74
2023/05/25 06:36:52;;;;;;;;;;;;;;;11.57;74.31;102588.03;5066057;28;19953;-71
2023/05/25 06:39:17;;;;;;;;;;;;;;;11.84;73.25;102580.38;5063424;28;20087;-71
2023/05/25 06:41:43;;;;;;;;;;;;;;;12.24;72.39;102579.66;5053552;28;19932;-74
2023/05/25 06:44:09;;;;;;;;;;;;;;;12.36;71.80;102576.97;5067134;28;19941;-72
2023/05/25 06:46:45;;;;;;;;;;;;;;;12.42;70.71;102589.47;5058291;28;19953;-73
2023/05/25 06:49:10;;;;;;;;;;;;;;;12.55;71.47;102583.84;5044118;28;19951;-76
2023/05/25 06:51:36;;;;;;;;;;;;;;;12.64;70.84;102593.16;5063910;28;19935;-71
2023/05/25 06:54:02;;;;;;;;;;;;;;;12.83;70.46;102589.22;5064652;28;19941;-71
2023/05/25 06:56:28;;;;;;;;;;;;;;;13.08;69.13;102578.13;5082799;28;19949;-70
2023/05/25 06:58:53;;;;;;;;;;;;;;;12.99;69.31;102584.13;5066473;28;20256;-74
2023/05/25 07:01:18;;;;;;;;;;;;;;;13.17;68.15;102589.31;5066498;28;19936;-71
2023/05/25 07:03:44;;;;;;;;;;;;;;;13.06;67.80;102592.88;5066373;28;20443;-71
2023/05/25 07:06:11;;;;;;;;;;;;;;;13.03;67.64;102596.88;5064096;28;20605;-73
2023/05/25 07:08:38;;;;;;;;;;;;;;;12.99;66.86;102594.88;5081249;28;19928;-74
2023/05/25 07:11:03;;;;;;;;;;;;;;;13.17;67.76;102600.06;5049000;28;19957;-73
2023/05/25 07:13:29;;;;;;;;;;;;;;;13.10;67.66;102594.84;5067592;28;19978;-72
2023/05/25 07:15:54;;;;;;;;;;;;;;;13.48;66.60;102603.31;5069953;28;19956;-72
2023/05/25 07:18:20;;;;;;;;;;;;;;;13.72;66.70;102594.03;5051218;28;19966;-71
2023/05/25 07:20:47;;;;;;;;;;;;;;;14.01;65.28;102592.03;5068445;28;20420;-71
2023/05/25 07:23:12;;;;;;;;;;;;;;;13.94;64.45;102594.91;5080715;28;19949;-71
2023/05/25 07:25:38;;;;;;;;;;;;;;;14.18;64.19;102590.13;5085973;28;19934;-74
2023/05/25 07:28:04;;;;;;;;;;;;;;;14.42;61.56;102592.59;5047994;28;20379;-71
2023/05/25 07:30:32;;;;;;;;;;;;;;;14.37;63.37;102595.25;5085120;28;19936;-71
2023/05/25 07:32:58;;;;;;;;;;;;;;;14.00;63.11;102589.59;5085245;28;20097;-71
2023/05/25 07:35:24;;;;;;;;;;;;;;;13.73;64.36;102595.66;5083839;28;20328;-73
2023/05/25 07:37:59;;;;;;;;;;;;;;;14.05;62.60;102595.06;5063207;28;19959;-71
2023/05/25 07:40:25;;;;;;;;;;;;;;;14.45;61.92;102597.50;5082110;28;19941;-74
2023/05/25 07:42:54;;;;;;;;;;;;;;;14.68;61.54;102596.44;5053238;28;19938;-72
2023/05/25 07:45:20;;;;;;;;;;;;;;;14.84;61.56;102606.34;5067224;28;19944;-73
2023/05/25 07:47:45;;;;;;;;;;;;;;;14.21;60.18;102608.50;5080835;28;20400;-73
2023/05/25 07:50:12;;;;;;;;;;;;;;;14.30;60.41;102605.38;5064160;28;19942;-73
2023/05/25 07:52:38;;;;;;;;;;;;;;;14.64;61.55;102611.50;5066567;28;20299;-69
2023/05/25 07:55:05;;;;;;;;;;;;;;;14.97;60.58;102613.22;5057695;28;19932;-73
2023/05/25 07:57:30;;;;;;;;;;;;;;;15.21;60.28;102616.44;5048880;28;20042;-70
2023/05/25 07:59:56;;;;;;;;;;;;;;;14.81;60.07;102617.63;5084527;28;20045;-73
2023/05/25 08:02:21;;;;;;;;;;;;;;;14.57;60.27;102619.78;5072117;28;19944;-71
2023/05/25 08:04:47;;;;;;;;;;;;;;;14.38;60.95;102623.81;5087006;28;19945;-71
2023/05/25 08:07:15;;;;;;;;;;;;;;;14.55;62.32;102624.59;5054112;28;19960;-71
2023/05/25 08:09:41;;;;;;;;;;;;;;;14.88;58.57;102615.56;5088739;28;19926;-73
2023/05/25 08:12:06;;;;;;;;;;;;;;;14.93;58.76;102621.03;5056189;28;19938;-73
2023/05/25 08:14:32;;;;;;;;;;;;;;;14.82;58.56;102623.84;5089791;28;20398;-71
2023/05/25 08:16:57;;;;;;;;;;;;;;;15.25;58.60;102620.28;5086752;28;19951;-71
2023/05/25 08:19:23;;;;;;;;;;;;;;;15.58;58.34;102621.94;5087793;28;19998;-74
2023/05/25 08:21:48;;;;;;;;;;;;;;;15.12;58.06;102623.38;5087175;28;20424;-70
2023/05/25 08:24:14;;;;;;;;;;;;;;;15.14;58.09;102616.66;5087586;28;19938;-74
2023/05/25 08:26:40;;;;;;;;;;;;;;;15.89;57.20;102612.19;5072592;28;19948;-72
2023/05/25 08:29:05;;;;;;;;;;;;;;;16.15;57.38;102612.34;5053263;28;20284;-73
2023/05/25 08:31:31;;;;;;;;;;;;;;;16.02;58.11;102621.72;5072154;28;20034;-74
2023/05/25 08:33:57;;;;;;;;;;;;;;;15.74;60.26;102620.19;5089075;28;20421;-71
2023/05/25 08:36:23;;;;;;;;;;;;;;;15.66;57.89;102621.47;5072319;28;19953;-72
2023/05/25 08:38:49;;;;;;;;;;;;;;;15.99;55.93;102614.16;5089304;28;19953;-74
2023/05/25 08:41:15;;;;;;;;;;;;;;;16.17;56.78;102618.31;5083218;28;19930;-71
2023/05/25 08:43:41;;;;;;;;;;;;;;;16.42;54.62;102620.34;5069933;28;19930;-70
2023/05/25 08:46:07;;;;;;;;;;;;;;;16.96;56.75;102625.44;5082375;28;19960;-74
2023/05/25 08:48:35;;;;;;;;;;;;;;;16.19;55.01;102622.41;5068746;28;20841;-72
2023/05/25 08:51:04;;;;;;;;;;;;;;;15.90;56.09;102627.31;5055238;28;20339;-70
2023/05/25 08:53:32;;;;;;;;;;;;;;;16.60;55.53;102626.09;5055458;28;19938;-71
2023/05/25 08:55:59;;;;;;;;;;;;;;;16.71;53.99;102616.16;5084842;28;20037;-73
2023/05/25 08:58:29;;;;;;;;;;;;;;;17.06;54.61;102628.16;5055575;28;20424;-73
2023/05/25 09:00:57;;;;;;;;;;;;;;;17.03;54.66;102643.06;5056374;28;19937;-74
2023/05/25 09:03:24;;;;;;;;;;;;;;;17.54;53.59;102636.88;5053791;28;20300;-73
2023/05/25 09:05:50;;;;;;;;;;;;;;;17.80;52.69;102635.03;5059204;28;20037;-72
2023/05/25 09:08:16;;;;;;;;;;;;;;;17.05;52.98;102648.19;5050612;28;19998;-71
2023/05/25 09:10:42;;;;;;;;;;;;;;;17.07;51.62;102641.44;5046574;28;19949;-71
2023/05/25 09:13:08;;;;;;;;;;;;;;;17.30;52.82;102647.44;5051733;28;19936;-74
2023/05/25 09:15:36;;;;;;;;;;;;;;;16.84;53.33;102639.19;5054119;28;19934;-73
2023/05/25 09:18:02;;;;;;;;;;;;;;;17.70;54.26;102643.94;5069510;28;19956;-73
2023/05/25 09:20:30;;;;;;;;;;;;;;;17.25;50.74;102650.13;5068480;28;20389;-74
2023/05/25 09:22:56;;;;;;;;;;;;;;;17.08;50.87;102644.97;5051170;28;19972;-72
2023/05/25 09:25:27;;;;;;;;;;;;;;;17.17;53.30;102644.16;5057205;28;19968;-71
2023/05/25 09:27:55;;;;;;;;;;;;;;;17.30;51.44;102648.25;5069285;28;19953;-72
2023/05/25 09:30:20;;;;;;;;;;;;;;;17.50;48.89;102650.16;5053132;28;19966;-75
2023/05/25 09:32:46;;;;;;;;;;;;;;;17.59;50.61;102645.84;5067618;28;20333;-73
2023/05/25 09:35:12;;;;;;;;;;;;;;;17.90;49.80;102643.97;5069114;28;19945;-74
2023/05/25 09:37:39;;;;;;;;;;;;;;;17.94;49.49;102650.44;5079303;28;20002;-75
2023/05/25 09:40:05;;;;;;;;;;;;;;;17.93;48.89;102648.84;5069915;28;19988;-72
2023/05/25 09:42:32;;;;;;;;;;;;;;;17.38;50.26;102655.03;5067961;28;19943;-69
2023/05/25 09:44:58;;;;;;;;;;;;;;;17.70;49.91;102646.66;5068182;28;19991;-72
2023/05/25 09:47:25;;;;;;;;;;;;;;;17.84;49.98;102644.25;5066611;28;20418;-71
2023/05/25 09:49:53;;;;;;;;;;;;;;;17.37;51.37;102656.13;5064018;28;19974;-74
2023/05/25 09:52:19;;;;;;;;;;;;;;;17.32;50.48;102653.41;5081820;28;19937;-76
2023/05/25 09:54:46;;;;;;;;;;;;;;;17.68;48.88;102649.66;5056527;28;20150;-76
2023/05/25 09:57:12;;;;;;;;;;;;;;;18.35;51.54;102654.97;5061851;28;19958;-71
2023/05/25 09:59:37;;;;;;;;;;;;;;;18.17;49.07;102645.56;5087746;28;19942;-70
2023/05/25 10:02:03;;;;;;;;;;;;;;;18.74;47.71;102655.97;5069707;28;19941;-70
2023/05/25 10:04:28;;;;;;;;;;;;;;;18.24;46.82;102652.31;5084501;28;19935;-72
2023/05/25 10:06:55;;;;;;;;;;;;;;;18.87;48.85;102653.75;5087235;28;19952;-70
2023/05/25 10:09:21;;;;;;;;;;;;;;;19.03;48.90;102658.00;5064729;28;20071;-73
2023/05/25 10:11:50;;;;;;;;;;;;;;;18.71;49.88;102648.38;5058912;28;20045;-72
2023/05/25 10:14:18;;;;;;;;;;;;;;;18.63;44.48;102653.53;5067541;28;20300;-69
2023/05/25 10:16:46;;;;;;;;;;;;;;;18.54;45.27;102651.41;5064041;28;19949;-75
2023/05/25 10:19:16;;;;;;;;;;;;;;;19.07;46.02;102659.06;5034252;28;19948;-74
2023/05/25 10:21:46;;;;;;;;;;;;;;;18.85;49.19;102651.31;5065366;28;19933;-70
2023/05/25 10:24:17;;;;;;;;;;;;;;;18.48;46.90;102646.25;5064763;28;19932;-71
2023/05/25 10:26:46;;;;;;;;;;;;;;;18.94;49.44;102655.06;5067213;28;20707;-71
2023/05/25 10:29:12;;;;;;;;;;;;;;;18.88;45.92;102666.22;5085632;28;19941;-70
2023/05/25 10:31:38;;;;;;;;;;;;;;;18.74;47.21;102666.81;5068202;28;19966;-74
2023/05/25 10:34:04;;;;;;;;;;;;;;;18.75;45.25;102659.47;5066911;28;19936;-73
2023/05/25 10:36:30;;;;;;;;;;;;;;;19.03;46.39;102675.13;5081876;28;19951;-74
2023/05/25 10:38:56;;;;;;;;;;;;;;;17.81;48.14;102666.44;5055994;28;20005;-72
2023/05/25 10:41:22;;;;;;;;;;;;;;;17.76;50.11;102670.00;5082086;28;19935;-70
2023/05/25 10:43:48;;;;;;;;;;;;;;;17.98;47.16;102669.72;5066626;28;19927;-71
2023/05/25 10:46:14;;;;;;;;;;;;;;;18.54;46.01;102678.53;5055272;28;19954;-73
2023/05/25 10:48:47;;;;;;;;;;;;;;;19.05;45.66;102674.84;5068002;28;19939;-71
2023/05/25 10:51:13;;;;;;;;;;;;;;;18.65;45.15;102673.91;5083707;28;19990;-71
2023/05/25 10:53:42;;;;;;;;;;;;;;;19.19;44.89;102667.69;5065038;28;19932;-73
2023/05/25 10:56:09;;;;;;;;;;;;;;;19.16;46.69;102668.22;5065525;28;19953;-73
2023/05/25 10:58:39;;;;;;;;;;;;;;;19.20;45.48;102663.06;5067030;28;19954;-73
2023/05/25 11:01:04;;;;;;;;;;;;;;;18.69;46.93;102661.41;5083469;28;20023;-72
2023/05/25 11:03:42;;;;;;;;;;;;;;;19.18;46.97;102666.06;5085871;28;20479;-75
2023/05/25 11:06:09;;;;;;;;;;;;;;;19.14;46.93;102670.44;5052384;28;19975;-73
2023/05/25 11:09:05;;;;;;;;;;;;;;;19.70;45.27;102670.06;5065503;28;19935;-73
2023/05/25 11:11:47;;;;;;;;;;;;;;;19.04;48.07;102662.34;5051002;28;19939;-72
2023/05/25 11:14:28;;;;;;;;;;;;;;;19.34;47.86;102653.19;5064209;28;20600;-75
2023/05/25 11:17:10;;;;;;;;;;;;;;;19.40;46.96;102651.25;5048042;28;19947;-75
2023/05/25 11:19:40;;;;;;;;;;;;;;;19.31;45.16;102654.56;5082519;28;19966;-73
2023/05/25 11:22:21;;;;;;;;;;;;;;;18.96;47.08;102646.63;5049149;28;19939;-71
2023/05/25 11:24:51;;;;;;;;;;;;;;;18.89;47.05;102646.13;5058262;28;19950;-73
2023/05/25 11:27:23;;;;;;;;;;;;;;;18.93;47.36;102647.19;5083574;28;19954;-74
2023/05/25 11:29:50;;;;;;;;;;;;;;;18.60;47.36;102649.47;5069075;28;19932;-70
2023/05/25 11:32:15;;;;;;;;;;;;;;;18.41;46.81;102646.56;5081582;28;19997;-75
2023/05/25 11:34:45;;;;;;;;;;;;;;;18.44;48.90;102645.22;5069637;28;20332;-73
2023/05/25 11:37:20;;;;;;;;;;;;;;;17.35;48.78;102639.34;5055190;28;19948;-71
2023/05/25 11:39:52;;;;;;;;;;;;;;;17.64;50.36;102643.13;5057846;28;19957;-72
2023/05/25 11:42:19;;;;;;;;;;;;;;;18.49;48.86;102642.47;5050982;28;19936;-73
2023/05/25 11:44:45;;;;;;;;;;;;;;;18.93;45.75;102647.19;5057423;28;19933;-74
2023/05/25 11:47:17;;;;;;;;;;;;;;;19.74;48.74;102645.84;5067633;28;20058;-74
2023/05/25 11:49:45;;;;;;;;;;;;;;;19.34;47.00;102648.56;5065595;28;19945;-74
2023/05/25 11:52:12;;;;;;;;;;;;;;;19.95;47.58;102651.91;5069137;28;20355;-73
2023/05/25 11:54:41;;;;;;;;;;;;;;;19.31;45.90;102641.00;5054510;28;20578;-73
2023/05/25 11:57:13;;;;;;;;;;;;;;;19.41;46.51;102642.81;5086330;28;19953;-72
2023/05/25 11:59:39;;;;;;;;;;;;;;;20.63;45.48;102632.66;5069799;28;19947;-73
2023/05/25 12:02:04;;;;;;;;;;;;;;;20.03;42.89;102643.13;5059118;28;19942;-74
2023/05/25 12:04:33;;;;;;;;;;;;;;;21.22;42.60;102629.41;5086047;28;19938;-73
2023/05/25 12:07:06;;;;;;;;;;;;;;;20.83;45.78;102639.78;5072839;28;19958;-75
2023/05/25 12:09:33;;;;;;;;;;;;;;;21.08;43.98;102635.88;5052013;28;19939;-74
2023/05/25 12:11:58;;;;;;;;;;;;;;;21.77;44.11;102631.53;5087809;28;19943;-71
2023/05/25 12:14:24;;;;;;;;;;;;;;;21.85;41.93;102624.56;5063673;28;19973;-75
2023/05/25 12:16:53;;;;;;;;;;;;;;;20.89;44.96;102633.97;5088170;28;20319;-74
2023/05/25 12:19:19;;;;;;;;;;;;;;;20.35;43.72;102632.44;5052989;28;20476;-71
2023/05/25 12:21:46;;;;;;;;;;;;;;;19.95;42.55;102635.59;5069162;28;19933;-75
2023/05/25 12:24:12;;;;;;;;;;;;;;;19.52;45.68;102630.78;5054629;28;19980;-75
2023/05/25 12:26:56;;;;;;;;;;;;;;;19.93;46.47;102629.63;5083252;28;19990;-70
2023/05/25 12:29:22;;;;;;;;;;;;;;;19.55;44.94;102622.03;5067748;28;19940;-73
2023/05/25 12:31:47;;;;;;;;;;;;;;;20.11;44.61;102628.88;5072640;28;19939;-71
2023/05/25 12:34:15;;;;;;;;;;;;;;;21.03;44.85;102625.06;5050618;28;19944;-74
2023/05/25 12:36:47;;;;;;;;;;;;;;;20.92;42.28;102621.66;5069412;28;19944;-73
2023/05/25 12:39:16;;;;;;;;;;;;;;;21.92;45.21;102620.34;5072117;28;19986;-75
2023/05/25 12:41:49;;;;;;;;;;;;;;;21.99;40.46;102622.66;5065785;28;20351;-72